Time;durP1;ratioP1;P1;durP2;ratioP2;P2;SDS_P1;SDS_P2;PMS_P1;PMS_P2;Temp;Humidity;BMP_temperature;BMP_pressure;BME280_temperature;BME280_humidity;BME280_pressure;Samples;Min_cycle;Max_cycle;Signal;HPM_P1;HPM_P2
2023/12/30 00:00:52;;;;;;;12.63;5.30;;;6.40;99.90;;;;;;4389848;28;658634;-74
2023/12/30 00:03:40;;;;;;;13.97;5.27;;;6.50;99.90;;;;;;4360702;28;660573;-74
2023/12/30 00:06:27;;;;;;;12.97;4.47;;;6.50;99.90;;;;;;4383490;28;658989;-74
2023/12/30 00:09:15;;;;;;;13.10;5.70;;;6.60;99.90;;;;;;4384267;28;659149;-73
2023/12/30 00:12:03;;;;;;;16.50;6.00;;;6.60;99.90;;;;;;4355266;28;658422;-74
2023/12/30 00:14:50;;;;;;;12.90;5.67;;;6.50;99.90;;;;;;4326690;28;658881;-74
2023/12/30 00:17:39;;;;;;;14.10;5.93;;;6.60;99.90;;;;;;4356214;28;658716;-74
2023/12/30 00:20:26;;;;;;;12.77;5.57;;;6.60;99.90;;;;;;4368144;28;658601;-74
2023/12/30 00:23:13;;;;;;;13.82;5.55;;;6.60;99.90;;;;;;4362817;28;658879;-74
2023/12/30 00:26:01;;;;;;;13.20;5.00;;;6.60;99.90;;;;;;4420578;28;660193;-74
2023/12/30 00:28:48;;;;;;;11.17;5.40;;;6.60;99.90;;;;;;4405378;28;658692;-74
2023/12/30 00:31:35;;;;;;;13.32;4.90;;;6.30;99.90;;;;;;4428232;28;658387;-74
2023/12/30 00:34:24;;;;;;;9.37;4.43;;;6.20;99.90;;;;;;4401568;28;658875;-74
2023/12/30 00:37:13;;;;;;;10.07;4.27;;;6.30;99.90;;;;;;4408564;28;657915;-74
2023/12/30 00:40:00;;;;;;;8.60;4.30;;;6.40;99.90;;;;;;4412103;28;659237;-74
2023/12/30 00:42:47;;;;;;;9.40;4.00;;;6.30;99.90;;;;;;4412348;28;658497;-74
2023/12/30 00:45:35;;;;;;;10.27;4.20;;;5.90;99.90;;;;;;4435926;28;657769;-74
2023/12/30 00:48:22;;;;;;;9.00;3.40;;;6.20;99.90;;;;;;4442231;28;658463;-74
2023/12/30 00:51:10;;;;;;;5.90;3.00;;;6.20;99.90;;;;;;4416711;28;658161;-74
2023/12/30 00:53:58;;;;;;;12.10;3.60;;;6.40;99.90;;;;;;4408711;28;658396;-74
2023/12/30 00:56:45;;;;;;;7.47;3.37;;;6.30;99.90;;;;;;4432524;28;659811;-74
2023/12/30 00:59:32;;;;;;;6.10;2.90;;;6.50;99.90;;;;;;4412914;28;658020;-74
2023/12/30 01:02:20;;;;;;;8.60;3.67;;;6.60;99.90;;;;;;4427860;28;657396;-74
2023/12/30 01:05:07;;;;;;;7.13;3.30;;;6.70;99.90;;;;;;4428095;28;657516;-74
2023/12/30 01:07:56;;;;;;;9.43;3.33;;;6.60;99.90;;;;;;4409979;28;657254;-74
2023/12/30 01:10:43;;;;;;;6.53;3.23;;;6.50;99.90;;;;;;4408269;28;657632;-74
2023/12/30 01:13:30;;;;;;;7.33;3.47;;;6.50;99.90;;;;;;4432221;28;658365;-74
2023/12/30 01:16:17;;;;;;;7.37;3.13;;;6.50;99.90;;;;;;4418381;28;658113;-74
2023/12/30 01:19:05;;;;;;;6.03;3.30;;;6.50;99.90;;;;;;4443017;28;658350;-75
2023/12/30 01:21:52;;;;;;;7.43;3.17;;;6.30;99.90;;;;;;4433442;28;657624;-74
2023/12/30 01:24:41;;;;;;;10.43;3.30;;;6.10;99.90;;;;;;4431375;28;658848;-75
2023/12/30 01:27:28;;;;;;;6.50;3.33;;;6.00;99.90;;;;;;4392628;28;659253;-75
2023/12/30 01:30:15;;;;;;;6.33;3.40;;;5.90;99.90;;;;;;4410782;28;657323;-74
2023/12/30 01:33:03;;;;;;;7.10;3.30;;;5.90;99.90;;;;;;4402673;28;658184;-74
2023/12/30 01:35:50;;;;;;;4.90;2.60;;;5.90;99.90;;;;;;4370183;28;658352;-75
2023/12/30 01:38:37;;;;;;;5.60;2.87;;;5.90;99.90;;;;;;4412957;28;657058;-75
2023/12/30 01:41:26;;;;;;;6.13;3.03;;;6.00;99.90;;;;;;4433778;28;657666;-74
2023/12/30 01:44:13;;;;;;;13.90;3.10;;;5.90;99.90;;;;;;4393738;28;657745;-74
2023/12/30 01:47:01;;;;;;;6.70;3.10;;;5.70;99.90;;;;;;4423922;28;658933;-74
2023/12/30 01:49:48;;;;;;;6.50;3.50;;;5.60;99.90;;;;;;4407790;28;657425;-74
2023/12/30 01:52:35;;;;;;;6.47;2.80;;;5.60;99.90;;;;;;4413460;28;658799;-74
2023/12/30 01:55:22;;;;;;;4.83;2.93;;;5.60;99.90;;;;;;4402731;28;657321;-74
2023/12/30 01:58:11;;;;;;;7.68;3.35;;;5.50;99.90;;;;;;4437687;28;658046;-75
2023/12/30 02:00:59;;;;;;;7.90;3.43;;;5.40;99.90;;;;;;4400766;28;657669;-74
2023/12/30 02:03:46;;;;;;;6.60;3.43;;;5.30;99.90;;;;;;4434609;28;658502;-74
2023/12/30 02:06:33;;;;;;;6.17;3.17;;;5.20;99.90;;;;;;4412377;28;657147;-74
2023/12/30 02:09:20;;;;;;;7.40;3.20;;;5.10;99.90;;;;;;4416372;28;658414;-74
2023/12/30 02:12:08;;;;;;;7.27;3.20;;;4.90;99.90;;;;;;4412830;28;658057;-74
2023/12/30 02:14:56;;;;;;;5.17;2.80;;;4.90;99.90;;;;;;4429239;28;658590;-74
2023/12/30 02:17:44;;;;;;;9.77;3.23;;;4.80;99.90;;;;;;4373174;28;1126319;-74
2023/12/30 02:20:31;;;;;;;5.67;3.10;;;4.70;99.90;;;;;;4419982;28;658220;-74
2023/12/30 02:23:20;;;;;;;12.33;3.50;;;4.60;99.90;;;;;;4406197;28;657551;-74
2023/12/30 02:26:07;;;;;;;5.73;3.13;;;4.60;99.90;;;;;;4433589;28;658636;-74
2023/12/30 02:28:54;;;;;;;5.43;3.20;;;4.50;99.90;;;;;;4404515;28;658362;-74
2023/12/30 02:31:46;;;;;;;5.17;3.13;;;4.60;99.90;;;;;;4420389;28;657518;-74
2023/12/30 02:34:34;;;;;;;6.43;3.17;;;4.80;99.90;;;;;;4415260;28;657691;-74
2023/12/30 02:37:21;;;;;;;6.43;3.10;;;5.20;99.90;;;;;;4412135;28;657757;-74
2023/12/30 02:40:11;;;;;;;7.30;3.40;;;5.60;99.90;;;;;;4411640;28;658126;-74
2023/12/30 02:42:58;;;;;;;6.60;3.37;;;5.90;99.90;;;;;;4408516;28;658389;-74
2023/12/30 02:45:45;;;;;;;6.50;3.40;;;6.00;99.90;;;;;;4419552;28;658064;-74
2023/12/30 02:48:32;;;;;;;7.63;3.90;;;5.90;99.90;;;;;;4392208;28;660540;-74
2023/12/30 02:51:20;;;;;;;7.60;2.90;;;5.90;99.90;;;;;;4371642;28;657716;-74
2023/12/30 02:54:07;;;;;;;6.43;3.63;;;6.00;99.90;;;;;;4406865;28;657762;-74
2023/12/30 02:56:57;;;;;;;6.73;3.73;;;6.20;99.90;;;;;;4429961;28;657192;-74
2023/12/30 02:59:44;;;;;;;6.77;3.63;;;6.20;99.90;;;;;;4410274;28;658213;-74
2023/12/30 03:02:31;;;;;;;6.97;3.43;;;6.20;99.90;;;;;;4416120;28;658490;-74
2023/12/30 03:05:18;;;;;;;8.30;3.80;;;6.20;99.90;;;;;;4404503;28;657555;-74
2023/12/30 03:08:06;;;;;;;6.33;3.80;;;6.00;99.90;;;;;;4426566;28;657447;-74
2023/12/30 03:10:53;;;;;;;5.57;2.93;;;5.90;99.90;;;;;;4413132;28;657522;-74
2023/12/30 03:13:42;;;;;;;8.63;3.87;;;5.80;99.90;;;;;;4442343;28;658527;-74
2023/12/30 03:16:29;;;;;;;9.77;4.67;;;5.70;99.90;;;;;;4409489;28;657991;-74
2023/12/30 03:19:16;;;;;;;6.53;3.77;;;6.00;99.90;;;;;;4424995;28;657970;-74
2023/12/30 03:22:04;;;;;;;8.13;3.63;;;6.00;99.90;;;;;;4413046;28;658308;-74
2023/12/30 03:24:51;;;;;;;8.90;3.67;;;6.00;99.90;;;;;;4422711;28;657928;-74
2023/12/30 03:27:38;;;;;;;5.43;2.83;;;6.10;99.90;;;;;;4404791;28;658439;-74
2023/12/30 03:30:27;;;;;;;5.33;3.03;;;6.30;99.90;;;;;;4431869;28;656898;-74
2023/12/30 03:33:14;;;;;;;4.10;2.37;;;6.40;99.90;;;;;;4405320;28;658013;-74
2023/12/30 03:36:01;;;;;;;5.07;2.80;;;6.30;99.90;;;;;;4421733;28;657885;-74
2023/12/30 03:38:49;;;;;;;5.13;3.10;;;6.30;99.90;;;;;;4407303;28;657872;-74
2023/12/30 03:41:36;;;;;;;6.67;3.30;;;6.40;99.90;;;;;;4423522;28;657494;-74
2023/12/30 03:44:23;;;;;;;3.83;2.47;;;6.40;99.90;;;;;;4412353;28;657493;-74
2023/12/30 03:47:12;;;;;;;4.73;2.63;;;6.50;99.90;;;;;;4427400;28;657648;-74
2023/12/30 03:49:59;;;;;;;5.87;2.93;;;6.60;99.90;;;;;;4404433;28;657320;-74
2023/12/30 03:52:46;;;;;;;3.93;2.57;;;6.70;99.90;;;;;;4432348;28;657533;-74
2023/12/30 03:55:33;;;;;;;6.83;2.80;;;6.60;99.90;;;;;;4406412;28;658076;-74
2023/12/30 03:58:21;;;;;;;4.43;2.47;;;6.70;99.90;;;;;;4424140;28;657853;-74
2023/12/30 04:01:08;;;;;;;4.57;2.20;;;6.80;99.90;;;;;;4407418;28;657522;-74
2023/12/30 04:03:57;;;;;;;4.53;2.73;;;7.00;99.90;;;;;;4425039;28;657755;-74
2023/12/30 04:06:44;;;;;;;1.60;1.23;;;6.90;99.90;;;;;;4404312;28;657666;-74
2023/12/30 04:09:31;;;;;;;3.40;1.10;;;6.90;99.90;;;;;;4423794;28;657292;-74
2023/12/30 04:12:20;;;;;;;4.28;2.70;;;7.00;99.90;;;;;;4404701;28;657438;-74
2023/12/30 04:15:09;;;;;;;1.33;0.93;;;7.00;99.90;;;;;;4400771;28;657291;-74
2023/12/30 04:17:56;;;;;;;5.50;2.33;;;7.20;99.90;;;;;;4434696;28;658068;-74
2023/12/30 04:20:44;;;;;;;3.37;2.03;;;7.20;99.90;;;;;;4406151;28;657797;-74
2023/12/30 04:23:32;;;;;;;1.93;1.40;;;7.30;99.90;;;;;;4425332;28;658460;-74
2023/12/30 04:26:19;;;;;;;4.57;1.27;;;7.10;99.90;;;;;;4406619;28;657667;-74
2023/12/30 04:29:06;;;;;;;2.87;1.43;;;7.20;99.90;;;;;;4434742;28;657911;-74
2023/12/30 04:31:53;;;;;;;7.90;1.80;;;7.30;99.90;;;;;;4402752;28;657662;-74
2023/12/30 04:34:40;;;;;;;3.77;1.87;;;7.40;99.90;;;;;;4421753;28;657795;-74
2023/12/30 04:37:29;;;;;;;2.10;1.00;;;7.50;99.90;;;;;;4391079;28;658519;-74
2023/12/30 04:40:16;;;;;;;1.33;0.97;;;7.50;99.90;;;;;;4406020;28;657732;-74
2023/12/30 04:43:04;;;;;;;3.40;2.27;;;7.60;99.90;;;;;;4345562;28;657374;-74
2023/12/30 04:45:51;;;;;;;4.27;2.20;;;7.50;99.90;;;;;;4381828;28;658418;-74
2023/12/30 04:48:38;;;;;;;1.37;1.10;;;7.60;99.90;;;;;;4338598;28;657967;-74
2023/12/30 04:51:25;;;;;;;1.77;1.00;;;7.60;99.90;;;;;;4402859;28;657553;-74
2023/12/30 04:54:14;;;;;;;5.65;1.70;;;7.60;99.90;;;;;;4411168;28;658098;-74
2023/12/30 04:57:01;;;;;;;1.00;0.53;;;7.50;99.90;;;;;;4433457;28;656611;-74
2023/12/30 04:59:48;;;;;;;1.17;1.03;;;7.50;99.90;;;;;;4403758;28;658512;-74
2023/12/30 05:02:35;;;;;;;2.10;1.57;;;7.60;99.90;;;;;;4420867;28;657590;-74
2023/12/30 05:05:22;;;;;;;2.42;1.10;;;7.60;99.90;;;;;;4409185;28;658305;-74
2023/12/30 05:08:10;;;;;;;2.67;1.70;;;7.50;99.90;;;;;;4429499;28;657919;-74
2023/12/30 05:10:58;;;;;;;2.97;1.73;;;7.50;99.90;;;;;;4422495;28;657581;-74
2023/12/30 05:13:45;;;;;;;1.23;0.70;;;7.60;99.90;;;;;;4397526;28;658062;-74
2023/12/30 05:16:33;;;;;;;2.10;1.23;;;7.60;99.90;;;;;;4396066;28;657897;-74
2023/12/30 05:19:20;;;;;;;1.40;0.73;;;7.60;99.90;;;;;;4417271;28;658943;-74
2023/12/30 05:22:07;;;;;;;5.53;1.63;;;7.60;99.90;;;;;;4420029;28;657715;-74
2023/12/30 05:24:55;;;;;;;1.97;1.37;;;7.60;99.90;;;;;;4423798;28;657586;-74
2023/12/30 05:27:44;;;;;;;3.30;1.83;;;7.60;99.90;;;;;;4412597;28;657699;-74
2023/12/30 05:30:31;;;;;;;2.23;0.93;;;7.70;99.90;;;;;;4427807;28;657943;-74
2023/12/30 05:33:18;;;;;;;4.37;1.60;;;7.70;99.90;;;;;;4396141;28;657661;-74
2023/12/30 05:36:06;;;;;;;2.70;1.90;;;7.70;99.90;;;;;;4419039;28;658731;-74
2023/12/30 05:38:53;;;;;;;4.60;1.40;;;7.80;99.90;;;;;;4409465;28;657781;-74
2023/12/30 05:41:40;;;;;;;3.20;1.90;;;7.70;99.90;;;;;;4426819;28;658245;-74
2023/12/30 05:44:29;;;;;;;3.23;1.60;;;7.60;99.90;;;;;;4406240;28;657344;-74
2023/12/30 05:47:16;;;;;;;1.37;0.70;;;7.70;99.90;;;;;;4423177;28;657845;-74
2023/12/30 05:50:04;;;;;;;0.73;0.67;;;7.60;99.90;;;;;;4403776;28;658103;-74
2023/12/30 05:52:52;;;;;;;1.37;0.60;;;7.60;99.90;;;;;;4419717;28;658097;-74
2023/12/30 05:55:39;;;;;;;3.73;1.47;;;7.60;99.90;;;;;;4402344;28;658259;-74
2023/12/30 05:58:28;;;;;;;3.07;1.40;;;7.60;99.90;;;;;;4423148;28;657468;-74
2023/12/30 06:01:17;;;;;;;2.30;1.67;;;7.50;99.90;;;;;;4388239;28;658010;-74
2023/12/30 06:04:04;;;;;;;2.37;1.53;;;7.50;99.90;;;;;;4395239;28;657829;-74
2023/12/30 06:06:51;;;;;;;5.50;1.97;;;7.40;99.90;;;;;;4419730;28;658442;-74
2023/12/30 06:09:38;;;;;;;4.37;1.80;;;7.40;99.90;;;;;;4407539;28;657527;-74
2023/12/30 06:12:25;;;;;;;3.83;1.90;;;7.40;99.90;;;;;;4426116;28;657880;-74
2023/12/30 06:15:12;;;;;;;2.73;1.60;;;7.50;99.90;;;;;;4405551;28;658141;-74
2023/12/30 06:18:01;;;;;;;16.67;2.27;;;7.40;99.90;;;;;;4418648;28;657858;-74
2023/12/30 06:20:48;;;;;;;1.17;0.70;;;7.50;99.90;;;;;;4395182;28;658652;-74
2023/12/30 06:23:36;;;;;;;1.13;0.47;;;7.60;99.90;;;;;;4423719;28;657439;-74
2023/12/30 06:26:23;;;;;;;2.50;1.63;;;7.60;99.90;;;;;;4397411;28;657449;-75
2023/12/30 06:29:10;;;;;;;3.47;1.63;;;7.50;99.90;;;;;;4427374;28;658119;-76
2023/12/30 06:31:57;;;;;;;2.97;0.83;;;7.50;99.90;;;;;;4411589;28;657708;-75
2023/12/30 06:34:46;;;;;;;1.13;0.67;;;7.50;99.90;;;;;;4429756;28;657529;-77
2023/12/30 06:37:33;;;;;;;2.90;1.87;;;7.50;99.90;;;;;;4396749;28;657673;-76
2023/12/30 06:40:20;;;;;;;2.20;1.07;;;7.40;99.90;;;;;;4426574;28;657838;-76
2023/12/30 06:43:07;;;;;;;3.33;1.37;;;7.40;99.90;;;;;;4413508;28;658274;-75
2023/12/30 06:45:55;;;;;;;2.43;1.10;;;7.40;99.90;;;;;;4426191;28;657737;-77
2023/12/30 06:48:42;;;;;;;2.40;1.60;;;7.40;99.90;;;;;;4425492;28;657354;-77
2023/12/30 06:51:31;;;;;;;2.45;1.10;;;7.30;99.90;;;;;;4429351;28;657595;-77
2023/12/30 06:54:18;;;;;;;3.40;1.90;;;7.30;99.90;;;;;;4405081;28;658277;-78
2023/12/30 06:57:05;;;;;;;3.73;1.90;;;7.30;99.90;;;;;;4426615;28;657868;-74
2023/12/30 06:59:52;;;;;;;2.25;1.52;;;7.40;99.90;;;;;;4401320;28;657510;-75
2023/12/30 07:02:41;;;;;;;2.73;1.90;;;7.40;99.90;;;;;;4424208;28;657576;-76
2023/12/30 07:05:30;;;;;;;2.80;1.37;;;7.40;99.90;;;;;;4410035;28;657681;-77
2023/12/30 07:08:19;;;;;;;3.50;1.80;;;7.50;99.90;;;;;;4418680;28;657944;-75
2023/12/30 07:11:06;;;;;;;3.13;1.13;;;7.50;99.90;;;;;;4422842;28;658919;-74
2023/12/30 07:13:53;;;;;;;2.97;1.47;;;7.60;99.90;;;;;;4394185;28;658101;-75
2023/12/30 07:16:40;;;;;;;4.23;1.70;;;7.60;99.90;;;;;;4426193;28;657363;-76
2023/12/30 07:19:28;;;;;;;1.07;0.73;;;7.60;99.90;;;;;;4396458;28;657652;-76
2023/12/30 07:22:15;;;;;;;2.13;0.77;;;7.70;99.90;;;;;;4422288;28;657903;-75
2023/12/30 07:25:05;;;;;;;2.33;1.20;;;7.70;99.90;;;;;;4420311;28;657424;-75
2023/12/30 07:27:52;;;;;;;4.30;1.27;;;7.70;99.90;;;;;;4430894;28;657389;-75
2023/12/30 07:30:39;;;;;;;4.83;2.20;;;7.80;99.90;;;;;;4397175;28;658707;-75
2023/12/30 07:33:27;;;;;;;2.83;1.83;;;7.80;99.90;;;;;;4431953;28;657210;-75
2023/12/30 07:36:14;;;;;;;1.97;0.90;;;7.70;99.90;;;;;;4403402;28;658273;-75
2023/12/30 07:39:03;;;;;;;1.53;1.00;;;7.80;99.90;;;;;;4427017;28;658024;-76
2023/12/30 07:41:51;;;;;;;3.93;2.13;;;7.80;99.90;;;;;;4399053;28;658672;-76
2023/12/30 07:44:38;;;;;;;8.27;1.20;;;7.80;99.90;;;;;;4405053;28;657611;-75
2023/12/30 07:47:26;;;;;;;5.88;1.20;;;7.80;99.90;;;;;;4421562;28;658943;-76
2023/12/30 07:50:14;;;;;;;4.17;2.17;;;7.90;99.90;;;;;;4404456;28;657580;-75
2023/12/30 07:53:01;;;;;;;1.80;1.20;;;7.90;99.90;;;;;;4424645;28;658145;-74
2023/12/30 07:55:48;;;;;;;2.33;1.10;;;7.90;99.90;;;;;;4409740;28;657813;-76
2023/12/30 07:58:37;;;;;;;3.63;2.10;;;7.90;99.90;;;;;;4430769;28;658323;-75
2023/12/30 08:01:24;;;;;;;2.93;1.50;;;7.90;99.90;;;;;;4405059;28;657723;-75
2023/12/30 08:04:11;;;;;;;4.50;1.77;;;8.00;99.90;;;;;;4415359;28;657727;-76
2023/12/30 08:06:58;;;;;;;4.73;2.10;;;8.00;99.90;;;;;;4398859;28;657557;-76
2023/12/30 08:09:46;;;;;;;1.70;0.97;;;8.10;99.90;;;;;;4427906;28;658157;-76
2023/12/30 08:12:35;;;;;;;2.47;1.30;;;8.10;99.90;;;;;;4410641;28;657375;-75
2023/12/30 08:15:24;;;;;;;1.33;0.80;;;8.20;99.90;;;;;;4422847;28;657380;-75
2023/12/30 08:18:12;;;;;;;3.70;1.40;;;8.20;99.90;;;;;;4423241;28;657245;-75
2023/12/30 08:20:59;;;;;;;3.17;2.13;;;8.20;99.90;;;;;;4407197;28;657371;-76
2023/12/30 08:23:46;;;;;;;3.43;1.47;;;8.20;99.90;;;;;;4431346;28;657511;-76
2023/12/30 08:26:33;;;;;;;2.77;1.80;;;8.20;99.90;;;;;;4405147;28;657770;-76
2023/12/30 08:29:20;;;;;;;2.40;1.57;;;8.30;99.90;;;;;;4428088;28;657949;-76
2023/12/30 08:32:09;;;;;;;3.80;1.73;;;8.30;99.90;;;;;;4412146;28;657513;-75
2023/12/30 08:34:57;;;;;;;1.53;0.80;;;8.40;99.90;;;;;;4443068;28;657475;-75
2023/12/30 08:37:44;;;;;;;3.03;1.53;;;8.60;99.90;;;;;;4394132;28;658162;-75
2023/12/30 08:40:31;;;;;;;2.77;1.23;;;8.70;99.90;;;;;;4434786;28;658093;-76
2023/12/30 08:43:18;;;;;;;1.87;1.03;;;8.80;99.90;;;;;;4411202;28;657814;-75
2023/12/30 08:46:06;;;;;;;3.17;1.10;;;8.80;99.90;;;;;;4364485;28;657899;-76
2023/12/30 08:48:54;;;;;;;2.83;1.60;;;8.80;99.90;;;;;;4323942;28;657938;-74
2023/12/30 08:51:41;;;;;;;4.77;1.70;;;8.80;99.90;;;;;;4347885;28;657204;-75
2023/12/30 08:54:29;;;;;;;2.20;1.27;;;8.80;99.90;;;;;;4353348;28;657453;-74
2023/12/30 08:57:16;;;;;;;3.57;1.30;;;8.90;99.90;;;;;;4425628;28;657970;-74
2023/12/30 09:00:08;;;;;;;3.07;1.50;;;8.90;99.90;;;;;;4409101;28;657334;-74
2023/12/30 09:02:56;;;;;;;3.17;1.10;;;9.00;99.90;;;;;;4409315;28;658496;-75
2023/12/30 09:05:44;;;;;;;2.47;1.43;;;9.30;99.90;;;;;;4410712;28;658231;-74
2023/12/30 09:08:32;;;;;;;2.90;1.60;;;9.50;99.90;;;;;;4427471;28;656874;-75
2023/12/30 09:11:19;;;;;;;2.57;1.37;;;9.90;99.90;;;;;;4410492;28;658084;-75
2023/12/30 09:14:07;;;;;;;2.67;1.30;;;9.70;99.90;;;;;;4422459;28;657979;-75
2023/12/30 09:16:54;;;;;;;2.17;1.10;;;9.40;99.90;;;;;;4410055;28;658294;-74
2023/12/30 09:19:41;;;;;;;3.33;1.57;;;9.50;99.90;;;;;;4431164;28;657125;-75
2023/12/30 09:22:29;;;;;;;21.33;1.60;;;9.30;99.90;;;;;;4414161;28;657767;-74
2023/12/30 09:25:17;;;;;;;3.20;1.80;;;9.50;99.90;;;;;;4422608;28;658125;-76
2023/12/30 09:28:04;;;;;;;3.37;1.83;;;9.80;99.90;;;;;;4413320;28;657758;-75
2023/12/30 09:30:52;;;;;;;4.90;1.80;;;10.40;99.90;;;;;;4423734;28;657412;-76
2023/12/30 09:33:39;;;;;;;2.40;1.07;;;10.40;99.90;;;;;;4402891;28;658765;-75
2023/12/30 09:36:28;;;;;;;3.77;1.73;;;10.40;99.90;;;;;;4408674;28;658738;-77
2023/12/30 09:39:16;;;;;;;4.17;1.70;;;10.70;99.90;;;;;;4400821;28;659768;-77
2023/12/30 09:42:04;;;;;;;3.50;2.00;;;10.70;99.90;;;;;;4402847;28;658270;-76
2023/12/30 09:44:51;;;;;;;7.10;1.43;;;10.50;99.90;;;;;;4420793;28;659553;-76
2023/12/30 09:47:38;;;;;;;1.53;1.03;;;11.40;99.90;;;;;;4414633;28;658414;-76
2023/12/30 09:50:27;;;;;;;2.47;1.40;;;11.60;99.90;;;;;;4425300;28;658926;-76
2023/12/30 09:53:16;;;;;;;2.37;1.47;;;11.60;99.90;;;;;;4406661;28;659662;-77
2023/12/30 09:56:05;;;;;;;4.60;1.43;;;11.10;99.90;;;;;;4401583;28;658499;-76
2023/12/30 09:58:53;;;;;;;4.50;2.00;;;10.70;99.90;;;;;;4412661;28;658837;-75
2023/12/30 10:01:40;;;;;;;3.87;1.77;;;10.40;99.90;;;;;;4429764;28;659719;-76
2023/12/30 10:04:27;;;;;;;3.23;1.87;;;11.00;99.90;;;;;;4407606;28;659043;-75
2023/12/30 10:07:14;;;;;;;3.90;1.60;;;11.00;99.90;;;;;;4434119;28;658273;-77
2023/12/30 10:10:02;;;;;;;3.57;1.50;;;11.50;99.90;;;;;;4424503;28;658745;-76
2023/12/30 10:12:50;;;;;;;3.30;1.60;;;11.80;99.90;;;;;;4404104;28;658843;-77
2023/12/30 10:15:39;;;;;;;3.10;1.33;;;11.70;99.90;;;;;;4398264;28;659168;-75
2023/12/30 10:18:26;;;;;;;1.57;1.20;;;11.80;99.90;;;;;;4423891;28;658876;-77
2023/12/30 10:21:14;;;;;;;1.23;0.83;;;11.10;99.90;;;;;;4406667;28;658878;-76
2023/12/30 10:24:04;;;;;;;4.50;1.50;;;10.60;99.90;;;;;;4417921;28;658988;-77
2023/12/30 10:26:51;;;;;;;2.53;1.20;;;10.30;99.90;;;;;;4390903;28;659600;-78
2023/12/30 10:29:40;;;;;;;3.60;1.07;;;10.60;99.90;;;;;;4405955;28;658947;-76
2023/12/30 10:32:27;;;;;;;3.13;1.60;;;10.90;99.90;;;;;;4429627;28;658551;-77
2023/12/30 10:35:14;;;;;;;6.00;1.67;;;11.30;99.90;;;;;;4401695;28;658824;-77
2023/12/30 10:38:02;;;;;;;3.87;1.27;;;12.10;99.90;;;;;;4433445;28;659007;-77
2023/12/30 10:40:50;;;;;;;2.47;1.03;;;12.10;99.90;;;;;;4409606;28;658402;-77
2023/12/30 10:43:38;;;;;;;2.03;1.30;;;12.20;99.90;;;;;;4400992;28;658248;-75
2023/12/30 10:46:27;;;;;;;5.07;1.67;;;12.50;95.90;;;;;;4417314;28;659271;-76
2023/12/30 10:49:17;;;;;;;2.77;1.03;;;12.30;96.90;;;;;;4408097;28;658648;-76
2023/12/30 10:52:06;;;;;;;3.35;1.00;;;11.80;99.90;;;;;;4399503;28;659116;-77
2023/12/30 10:55:04;;;;;;;2.33;1.30;;;11.50;99.90;;;;;;4395790;28;658969;-77
2023/12/30 10:57:55;;;;;;;2.35;1.70;;;11.20;99.90;;;;;;4415362;28;658597;-78
2023/12/30 11:00:43;;;;;;;5.93;3.00;;;10.50;99.90;;;;;;4389188;28;659188;-76
2023/12/30 11:03:32;;;;;;;4.57;2.20;;;9.20;99.90;;;;;;4429166;28;658907;-78
2023/12/30 11:06:21;;;;;;;7.55;3.33;;;8.50;99.90;;;;;;4405392;28;658316;-74
2023/12/30 11:09:09;;;;;;;7.90;4.17;;;8.10;99.90;;;;;;4408859;28;658421;-76
2023/12/30 11:12:00;;;;;;;7.53;3.97;;;7.70;99.90;;;;;;4421182;28;658118;-76
2023/12/30 11:14:49;;;;;;;10.80;3.87;;;7.60;99.90;;;;;;4380794;28;657611;-77
2023/12/30 11:17:36;;;;;;;5.40;3.57;;;7.20;99.90;;;;;;4421055;28;658782;-78
2023/12/30 11:20:27;;;;;;;6.33;2.63;;;6.80;99.90;;;;;;4402707;28;657231;-76
2023/12/30 11:23:15;;;;;;;4.50;3.20;;;6.70;99.90;;;;;;4399878;28;658280;-76
2023/12/30 11:26:04;;;;;;;9.73;3.00;;;6.50;99.90;;;;;;4415814;28;658030;-74
2023/12/30 11:28:52;;;;;;;5.77;2.87;;;6.20;99.90;;;;;;4423020;28;658502;-77
2023/12/30 11:31:40;;;;;;;3.70;1.53;;;6.10;99.90;;;;;;4405939;28;657557;-76
2023/12/30 11:34:27;;;;;;;4.60;2.13;;;6.10;99.90;;;;;;4399003;28;657383;-74
2023/12/30 11:37:16;;;;;;;5.10;2.57;;;6.10;99.90;;;;;;4425344;28;657493;-74
2023/12/30 11:40:04;;;;;;;3.30;1.80;;;6.10;99.90;;;;;;4398950;28;657461;-76
2023/12/30 11:42:51;;;;;;;6.93;2.65;;;6.00;99.90;;;;;;4420007;28;657639;-74
2023/12/30 11:45:39;;;;;;;4.53;2.50;;;6.00;99.90;;;;;;4402364;28;657894;-77
2023/12/30 11:48:26;;;;;;;6.80;2.43;;;5.90;99.90;;;;;;4423094;28;657834;-77
2023/12/30 11:51:20;;;;;;;6.90;3.20;;;5.80;99.90;;;;;;4414586;28;657432;-76
2023/12/30 11:54:09;;;;;;;6.27;2.80;;;5.70;99.90;;;;;;4409364;28;657467;-74
2023/12/30 11:56:56;;;;;;;3.23;1.90;;;5.70;99.90;;;;;;4423958;28;657790;-75
2023/12/30 11:59:43;;;;;;;2.65;1.60;;;5.70;99.90;;;;;;4398203;28;657695;-74
2023/12/30 12:02:30;;;;;;;2.00;1.10;;;5.70;99.90;;;;;;4428015;28;659428;-75
2023/12/30 12:05:18;;;;;;;2.75;1.33;;;5.90;99.90;;;;;;4404888;28;657766;-74
2023/12/30 12:08:06;;;;;;;1.40;1.00;;;5.90;99.90;;;;;;4409200;28;657683;-77
2023/12/30 12:10:54;;;;;;;2.40;1.40;;;6.00;99.90;;;;;;4402352;28;657648;-76
2023/12/30 12:13:41;;;;;;;1.50;0.87;;;6.10;99.90;;;;;;4427950;28;657534;-76
2023/12/30 12:16:31;;;;;;;3.88;1.45;;;6.10;99.90;;;;;;4403326;28;657798;-76
2023/12/30 12:19:19;;;;;;;4.82;1.90;;;6.00;99.90;;;;;;4407859;28;657916;-76
2023/12/30 12:22:06;;;;;;;3.10;1.43;;;6.00;99.90;;;;;;4422329;28;657797;-76
2023/12/30 12:24:53;;;;;;;5.77;2.63;;;6.10;99.90;;;;;;4406080;28;657837;-76
2023/12/30 12:27:41;;;;;;;7.37;3.00;;;6.00;99.90;;;;;;4430458;28;658053;-76
2023/12/30 12:30:29;;;;;;;6.50;3.27;;;6.00;99.90;;;;;;4397967;28;661044;-76
2023/12/30 12:33:17;;;;;;;8.43;3.50;;;6.10;99.90;;;;;;4424758;28;657858;-76
2023/12/30 12:36:05;;;;;;;9.73;3.67;;;6.00;99.90;;;;;;4396615;28;657688;-75
2023/12/30 12:38:52;;;;;;;7.57;4.03;;;6.00;99.90;;;;;;4411690;28;657699;-74
2023/12/30 12:41:40;;;;;;;6.47;4.10;;;6.00;99.90;;;;;;4427468;28;657873;-75
2023/12/30 12:44:28;;;;;;;6.70;4.20;;;6.00;99.90;;;;;;4428869;28;656667;-76
2023/12/30 12:47:16;;;;;;;5.97;2.63;;;6.10;99.90;;;;;;4399455;28;657595;-76
2023/12/30 12:50:04;;;;;;;8.77;4.83;;;6.10;99.90;;;;;;4399927;28;658276;-76
2023/12/30 12:52:51;;;;;;;4.67;3.07;;;6.00;99.90;;;;;;4421471;28;657610;-76
2023/12/30 12:55:38;;;;;;;2.20;1.33;;;6.00;99.90;;;;;;4395585;28;657860;-77
2023/12/30 12:58:25;;;;;;;9.50;4.73;;;6.00;99.90;;;;;;4421040;28;658377;-77
2023/12/30 13:01:14;;;;;;;11.27;4.90;;;6.00;99.90;;;;;;4408517;28;657419;-74
2023/12/30 13:04:01;;;;;;;10.13;5.33;;;6.00;99.90;;;;;;4424367;28;658753;-76
2023/12/30 13:06:48;;;;;;;9.37;4.67;;;5.90;99.90;;;;;;4401388;28;658668;-76
2023/12/30 13:09:40;;;;;;;7.87;3.47;;;5.90;99.90;;;;;;4430481;28;657764;-76
2023/12/30 13:12:28;;;;;;;10.03;4.90;;;5.90;99.90;;;;;;4383594;28;658337;-75
2023/12/30 13:15:19;;;;;;;11.53;5.33;;;5.90;99.90;;;;;;4413188;28;659656;-77
2023/12/30 13:18:09;;;;;;;11.00;4.93;;;5.90;99.90;;;;;;4398387;28;658843;-75
2023/12/30 13:20:57;;;;;;;6.60;3.70;;;5.80;99.90;;;;;;4396234;28;658120;-76
2023/12/30 13:23:47;;;;;;;7.80;4.20;;;5.80;99.90;;;;;;4402054;28;658038;-77
2023/12/30 13:26:34;;;;;;;12.87;2.87;;;5.80;99.90;;;;;;4392021;28;658726;-77
2023/12/30 13:29:21;;;;;;;6.73;2.73;;;5.70;99.90;;;;;;4429777;28;658964;-76
2023/12/30 13:32:09;;;;;;;5.70;3.20;;;5.60;99.90;;;;;;4401132;28;657611;-75
2023/12/30 13:34:58;;;;;;;4.47;1.77;;;5.60;99.90;;;;;;4426373;28;657811;-76
2023/12/30 13:37:46;;;;;;;8.37;3.03;;;5.60;99.90;;;;;;4382560;28;658451;-76
2023/12/30 13:40:33;;;;;;;9.43;3.70;;;5.50;99.90;;;;;;4403494;28;658122;-76
2023/12/30 13:43:24;;;;;;;6.13;3.33;;;5.40;99.90;;;;;;4426951;28;658559;-76
2023/12/30 13:46:42;;;;;;;7.17;3.80;;;5.50;99.90;;;;;;4392571;28;658302;-76
2023/12/30 13:49:42;;;;;;;7.10;3.20;;;5.40;99.90;;;;;;4401847;28;657921;-76
2023/12/30 13:52:31;;;;;;;8.77;3.27;;;5.40;99.90;;;;;;4404528;28;657764;-75
2023/12/30 13:55:19;;;;;;;6.87;2.80;;;5.30;99.90;;;;;;4400437;28;658098;-76
2023/12/30 13:58:06;;;;;;;6.90;3.10;;;5.30;99.90;;;;;;4420585;28;657704;-76
2023/12/30 14:00:55;;;;;;;4.30;2.53;;;5.30;99.90;;;;;;4404771;28;657526;-77
2023/12/30 14:03:45;;;;;;;5.80;2.40;;;5.20;99.90;;;;;;4409868;28;657801;-75
2023/12/30 14:06:36;;;;;;;6.40;3.47;;;5.20;99.90;;;;;;4408687;28;657705;-75
2023/12/30 14:09:32;;;;;;;4.18;2.30;;;5.20;99.90;;;;;;4407023;28;657623;-76
2023/12/30 14:12:21;;;;;;;5.67;2.40;;;5.30;99.90;;;;;;4370718;28;657830;-76
2023/12/30 14:15:12;;;;;;;4.10;2.00;;;5.20;99.90;;;;;;4407734;28;658033;-75
2023/12/30 14:17:59;;;;;;;5.77;2.57;;;5.20;99.90;;;;;;4393586;28;658145;-77
2023/12/30 14:20:47;;;;;;;4.80;2.70;;;5.20;99.90;;;;;;4425624;28;657512;-76
2023/12/30 14:23:34;;;;;;;6.83;3.07;;;5.20;99.90;;;;;;4408216;28;657648;-76
2023/12/30 14:26:23;;;;;;;6.07;2.80;;;5.20;99.90;;;;;;4437121;28;658120;-75
2023/12/30 14:29:10;;;;;;;9.10;3.07;;;5.30;99.90;;;;;;4399191;28;657428;-75
2023/12/30 14:31:57;;;;;;;7.77;2.07;;;5.20;99.90;;;;;;4422923;28;658184;-74